logo
Search for airport 
image banner adimage banner adimage banner ad
image banner ad

SHBO - Base Olimpo

Located in Lo Barnechea, Chile

ICAO - , IATA -

Data provided by Airmate  

General information

Coordinates: S33°21'34" W70°16'1"
Elevation is 8787 feet MSL.
 
View others Airports in Santiago Metropolitan Region

Operational data

Special qualification required
Current time UTC:
Current local time:
Weather at : SCTB - Eulogio Sanchez - Tobalaba ( 28 km )
METAR: SCTB 171400Z 00000KT CAVOK 15/M00 Q1017
View NOTAMs / SUP AIP / TFR affecting this airport [VIEW]
Communications frequencies: [VIEW]

Runways:

Airport contact information

Address: Lo Barnechea Chile

Satellite view of SHBO